Time;durP1;ratioP1;P1;durP2;ratioP2;P2;SDS_P1;SDS_P2;PMS_P1;PMS_P2;Temp;Humidity;BMP_temperature;BMP_pressure;BME280_temperature;BME280_humidity;BME280_pressure;Samples;Min_cycle;Max_cycle;Signal;HPM_P1;HPM_P2
2021/12/22 00:01:53;;;;;;;0.20;0.20;;;;;;;-3.34;100.00;101105.66;5013968;23;20227;-82
2021/12/22 00:04:24;;;;;;;0.20;0.20;;;-3.00;99.90;;;-3.35;100.00;101116.78;4969791;28;20686;-82
2021/12/22 00:06:53;;;;;;;0.20;0.20;;;-3.00;99.90;;;-3.35;100.00;101109.91;4996007;28;20207;-82
2021/12/22 00:09:22;;;;;;;0.30;0.30;;;-3.00;99.90;;;-3.36;100.00;101109.81;5000983;28;20227;-82
2021/12/22 00:11:50;;;;;;;0.55;0.55;;;;;;;-3.34;100.00;101121.16;5003681;28;20200;-82
2021/12/22 00:14:19;;;;;;;0.20;0.20;;;;;;;-3.38;100.00;101116.53;5003721;28;20211;-84
2021/12/22 00:16:47;;;;;;;0.30;0.30;;;;;;;-3.40;100.00;101103.50;4972483;28;20203;-82
2021/12/22 00:19:15;;;;;;;0.20;0.20;;;;;;;-3.42;100.00;101097.31;4981813;28;20206;-82
2021/12/22 00:21:43;;;;;;;0.20;0.20;;;;;;;-3.42;100.00;101106.75;4998468;28;20210;-82
2021/12/22 00:24:11;;;;;;;0.20;0.20;;;;;;;-3.46;100.00;101094.38;4998207;28;20215;-81
2021/12/22 00:26:39;;;;;;;0.30;0.30;;;-3.00;99.90;;;-3.49;100.00;101089.88;4992704;28;20215;-81
2021/12/22 00:29:08;;;;;;;0.20;0.20;;;;;;;-3.50;100.00;101080.31;4982982;28;20223;-81
2021/12/22 00:31:56;;;;;;;0.20;0.20;;;;;;;-3.51;100.00;101087.97;5007532;28;20214;-82
2021/12/22 00:34:26;;;;;;;0.22;0.22;;;;;;;-3.50;100.00;101089.78;4999980;28;20591;-81
2021/12/22 00:36:55;;;;;;;0.20;0.20;;;;;;;-3.55;100.00;101084.25;4979905;28;20208;-81
2021/12/22 00:39:23;;;;;;;0.30;0.30;;;;;;;-3.62;100.00;101075.13;4951212;28;20254;-81
2021/12/22 00:41:51;;;;;;;0.20;0.20;;;;;;;-3.63;100.00;101075.94;4995330;28;20211;-82
2021/12/22 00:44:22;;;;;;;0.20;0.20;;;;;;;-3.64;100.00;101079.28;5000635;28;20217;-81
2021/12/22 00:46:51;;;;;;;0.20;0.20;;;;;;;-3.68;100.00;101066.03;4972093;28;20210;-81
2021/12/22 00:49:19;;;;;;;0.30;0.30;;;;;;;-3.67;100.00;101066.13;4974452;28;20690;-81
2021/12/22 00:51:48;;;;;;;0.20;0.20;;;;;;;-3.71;100.00;101061.53;4979697;28;20218;-82
2021/12/22 00:54:16;;;;;;;0.20;0.20;;;;;;;-3.72;100.00;101064.91;4964316;28;20200;-81
2021/12/22 00:56:44;;;;;;;0.85;0.85;;;;;;;-3.74;100.00;101057.81;4991639;28;20203;-82
2021/12/22 00:59:13;;;;;;;0.20;0.20;;;;;;;-3.76;100.00;101061.97;4958174;28;20200;-82
2021/12/22 01:01:42;;;;;;;0.20;0.20;;;-3.40;99.90;;;-3.82;100.00;101064.97;4967310;28;20216;-82
2021/12/22 01:04:10;;;;;;;0.40;0.40;;;;;;;-3.85;100.00;101072.50;4982897;28;20207;-81
2021/12/22 01:06:39;;;;;;;0.30;0.30;;;;;;;-3.84;100.00;101069.13;5000389;28;20215;-81
2021/12/22 01:09:08;;;;;;;0.20;0.20;;;;;;;-3.91;100.00;101066.84;5003659;28;20231;-81
2021/12/22 01:11:36;;;;;;;0.22;0.22;;;;;;;-3.91;100.00;101077.16;4990894;28;20210;-81
2021/12/22 01:14:05;;;;;;;0.20;0.20;;;-3.40;99.90;;;-3.95;100.00;101072.56;4992533;28;20239;-81
2021/12/22 01:16:34;;;;;;;0.20;0.20;;;-3.10;99.90;;;-3.97;100.00;101079.28;4986283;28;20215;-81
2021/12/22 01:19:08;;;;;;;0.20;0.20;;;;;;;-3.99;100.00;101080.84;4999506;28;20215;-81
2021/12/22 01:21:47;;;;;;;0.20;0.20;;;;;;;-4.06;100.00;101076.91;4995931;28;20214;-81
2021/12/22 01:24:36;;;;;;;0.20;0.20;;;;;;;-4.01;100.00;101097.91;4992379;28;20210;-81
2021/12/22 01:27:07;;;;;;;0.20;0.20;;;-3.60;99.90;;;-3.99;100.00;101102.41;5003187;28;20239;-81
2021/12/22 01:29:38;;;;;;;0.20;0.20;;;-3.60;99.90;;;-4.04;100.00;101098.59;4954311;28;20216;-81
2021/12/22 01:32:09;;;;;;;0.20;0.20;;;-3.60;99.90;;;-4.06;100.00;101104.41;4979368;28;20210;-81
2021/12/22 01:34:38;;;;;;;0.30;0.30;;;;;;;-4.11;100.00;101098.88;4998380;28;20200;-81
2021/12/22 01:37:06;;;;;;;0.30;0.30;;;;;;;-4.10;100.00;101111.03;4976515;28;20226;-81
2021/12/22 01:39:34;;;;;;;0.50;0.50;;;-3.70;99.90;;;-4.09;100.00;101119.66;4969105;28;20218;-84
2021/12/22 01:42:02;;;;;;;0.20;0.20;;;-3.70;99.90;;;-4.08;100.00;101127.53;5004783;28;20207;-82
2021/12/22 01:44:47;;;;;;;0.20;0.20;;;-3.60;99.90;;;-4.09;100.00;101130.91;5001831;28;20203;-81
2021/12/22 01:50:09;;;;;;;0.20;0.20;;;-3.70;99.90;;;-4.13;100.00;101130.53;5006810;28;20318;-82
2021/12/22 01:52:37;;;;;;;0.20;0.20;;;-3.80;99.90;;;-4.19;100.00;101125.81;4987617;28;20673;-82
2021/12/22 01:55:15;;;;;;;0.20;0.20;;;-3.80;99.90;;;-4.18;100.00;101133.66;4991185;28;20214;-82
2021/12/22 01:57:47;;;;;;;0.20;0.20;;;-3.70;99.90;;;-4.21;100.00;101135.13;4982781;28;20234;-81
2021/12/22 02:00:19;;;;;;;0.20;0.20;;;-3.70;99.90;;;-4.16;100.00;101149.28;4987021;28;20211;-82
2021/12/22 02:02:47;;;;;;;0.20;0.20;;;-3.90;99.90;;;-4.21;100.00;101142.84;4983331;28;20222;-82
2021/12/22 02:05:15;;;;;;;0.20;0.20;;;-3.90;99.90;;;-4.25;100.00;101144.31;4982616;28;20204;-82
2021/12/22 02:07:43;;;;;;;0.20;0.20;;;-3.50;99.90;;;-4.27;100.00;101142.38;4999777;28;20227;-81
2021/12/22 02:10:31;;;;;;;0.20;0.20;;;;;;;-4.36;100.00;101127.06;4991188;28;20230;-82
2021/12/22 02:13:14;;;;;;;0.20;0.20;;;-4.00;99.90;;;-4.37;100.00;101134.69;4992579;28;20216;-81
2021/12/22 02:15:43;;;;;;;0.20;0.20;;;-4.10;99.90;;;-4.27;100.00;101152.72;4983193;28;20673;-81
2021/12/22 02:18:17;;;;;;;0.20;0.20;;;-3.90;99.90;;;-4.27;100.00;101151.03;5010100;28;20227;-81
2021/12/22 02:20:47;;;;;;;0.20;0.20;;;-6.00;99.90;;;-4.37;100.00;101143.34;4984738;28;20202;-81
2021/12/22 02:23:16;;;;;;;0.20;0.20;;;-3.80;99.90;;;-4.30;100.00;101155.03;4997096;28;20199;-81
2021/12/22 02:25:53;;;;;;;0.30;0.30;;;-3.90;99.90;;;-4.30;100.00;101161.13;4989450;28;20207;-81
2021/12/22 02:28:26;;;;;;;0.20;0.20;;;;;;;-4.32;100.00;101161.78;4968406;28;20219;-81
2021/12/22 02:30:54;;;;;;;0.20;0.20;;;-3.90;99.90;;;-4.30;100.00;101166.28;4988181;28;20234;-81
2021/12/22 02:33:42;;;;;;;0.20;0.20;;;-3.80;99.90;;;-4.35;100.00;101165.00;5018091;28;20207;-81
2021/12/22 02:36:23;;;;;;;0.20;0.20;;;-4.00;99.90;;;-4.40;100.00;101144.78;5003595;28;20203;-81
2021/12/22 02:39:00;;;;;;;0.20;0.20;;;-3.90;99.90;;;-4.42;100.00;101141.16;5001593;28;20229;-81
2021/12/22 02:41:30;;;;;;;0.20;0.20;;;-4.00;99.90;;;-4.47;100.00;101134.75;4982571;28;20303;-82
2021/12/22 02:43:59;;;;;;;0.20;0.20;;;-4.30;99.90;;;-4.47;100.00;101137.31;5000223;28;20210;-81
2021/12/22 02:46:32;;;;;;;0.30;0.30;;;-4.10;99.90;;;-4.48;100.00;101132.94;4978105;28;20219;-81
2021/12/22 02:49:04;;;;;;;0.20;0.20;;;-4.40;99.90;;;-4.57;100.00;101115.03;4982439;28;20219;-82
2021/12/22 02:51:33;;;;;;;0.20;0.20;;;;;;;-4.61;100.00;101120.72;4986434;28;20256;-81
2021/12/22 02:54:17;;;;;;;0.20;0.20;;;-4.30;99.90;;;-4.63;100.00;101119.72;4999400;28;20206;-81
2021/12/22 03:04:42;;;;;;;0.20;0.20;;;-4.40;99.90;;;-4.75;100.00;101111.00;4989547;28;20655;-81
2021/12/22 03:07:23;;;;;;;0.20;0.20;;;-4.40;99.90;;;-4.67;100.00;101122.81;4987124;28;20227;-81
2021/12/22 03:10:08;;;;;;;0.20;0.20;;;-4.40;99.90;;;-4.80;100.00;101102.88;4985304;28;20223;-81
2021/12/22 03:12:37;;;;;;;0.30;0.30;;;-4.20;99.90;;;-4.78;100.00;101111.66;4994511;28;20203;-81
2021/12/22 03:15:08;;;;;;;0.30;0.30;;;-4.20;99.90;;;-4.76;100.00;101109.19;4999836;28;20214;-82
2021/12/22 03:17:38;;;;;;;0.30;0.30;;;-4.60;99.90;;;-5.00;100.00;101082.31;5012620;28;20238;-82
2021/12/22 03:20:09;;;;;;;0.20;0.20;;;-4.80;99.90;;;-5.00;100.00;101088.38;5013294;28;20211;-81
2021/12/22 03:22:38;;;;;;;0.20;0.20;;;-4.60;99.90;;;-4.95;100.00;101107.72;4965499;28;20208;-81
2021/12/22 03:25:14;;;;;;;0.20;0.20;;;-4.60;99.90;;;-4.94;100.00;101106.03;5005453;28;20207;-81
2021/12/22 03:27:45;;;;;;;0.22;0.22;;;-4.60;99.90;;;-5.01;100.00;101089.16;4966523;28;20222;-81
2021/12/22 03:30:18;;;;;;;0.30;0.30;;;-4.60;99.90;;;-5.05;100.00;101088.78;4988344;28;20226;-81
2021/12/22 03:32:46;;;;;;;0.30;0.30;;;;;;;-5.06;100.00;101089.56;4985812;28;20564;-82
2021/12/22 03:35:20;;;;;;;0.22;0.22;;;;;;;-5.10;100.00;101091.00;4993282;28;20203;-81
2021/12/22 03:37:56;;;;;;;0.22;0.22;;;-4.90;99.90;;;-5.10;100.00;101088.41;4987107;28;20231;-81
2021/12/22 03:40:27;;;;;;;0.20;0.20;;;-4.60;99.90;;;-5.10;100.00;101087.50;5004928;28;20206;-81
2021/12/22 03:42:55;;;;;;;0.30;0.30;;;-4.80;99.90;;;-5.20;100.00;101072.97;5006155;28;20203;-81
2021/12/22 03:45:23;;;;;;;0.30;0.30;;;-4.80;99.90;;;-5.22;100.00;101075.41;4998760;28;20192;-81
2021/12/22 03:47:52;;;;;;;0.22;0.22;;;-4.90;99.90;;;-5.24;100.00;101070.88;5003210;28;20216;-81
2021/12/22 03:50:20;;;;;;;0.20;0.20;;;-4.90;99.90;;;-5.27;100.00;101070.63;4995416;28;20215;-81
2021/12/22 03:52:49;;;;;;;0.30;0.30;;;;;;;-5.26;100.00;101073.34;4984436;28;20207;-81
2021/12/22 03:55:17;;;;;;;0.40;0.40;;;;;;;-5.25;100.00;101076.81;4984781;28;20560;-81
2021/12/22 03:57:45;;;;;;;0.30;0.30;;;-4.90;99.90;;;-5.26;100.00;101080.19;4990658;28;20596;-81
2021/12/22 04:00:14;;;;;;;0.30;0.30;;;-4.90;99.90;;;-5.34;100.00;101069.25;4986595;28;20211;-80
2021/12/22 04:02:43;;;;;;;0.30;0.30;;;-5.00;99.90;;;-5.34;100.00;101065.75;4988876;28;20211;-80
2021/12/22 04:05:12;;;;;;;0.22;0.22;;;-4.90;99.90;;;-5.38;100.00;101066.28;4997935;28;20214;-80
2021/12/22 04:07:40;;;;;;;0.20;0.20;;;-5.10;99.90;;;-5.43;100.00;101060.75;4966857;28;20220;-81
2021/12/22 04:10:20;;;;;;;0.20;0.20;;;-5.20;99.90;;;-5.42;100.00;101065.13;4982560;28;20215;-81
2021/12/22 04:12:54;;;;;;;0.30;0.30;;;-5.10;99.90;;;-5.44;100.00;101063.22;5000676;28;20226;-80
2021/12/22 04:15:25;;;;;;;0.30;0.30;;;-5.10;99.90;;;-5.43;100.00;101075.31;4995141;28;20191;-81
2021/12/22 04:17:54;;;;;;;0.40;0.40;;;-5.10;99.90;;;-5.40;100.00;101078.16;4971207;28;20246;-80
2021/12/22 04:20:23;;;;;;;0.40;0.40;;;;;;;-5.37;100.00;101096.44;4979606;28;20220;-81
2021/12/22 04:22:51;;;;;;;0.30;0.30;;;;;;;-5.44;100.00;101087.31;5020244;28;20214;-80
2021/12/22 04:25:21;;;;;;;0.30;0.30;;;-5.10;99.90;;;-5.50;100.00;101090.28;4984839;28;20207;-80
2021/12/22 04:27:53;;;;;;;0.20;0.20;;;-5.10;99.90;;;-5.52;100.00;101084.09;5011120;28;20223;-80
2021/12/22 04:30:22;;;;;;;0.30;0.30;;;-5.20;99.90;;;-5.50;100.00;101097.09;4984486;28;20212;-80
2021/12/22 04:32:51;;;;;;;0.30;0.30;;;-5.20;99.90;;;-5.52;100.00;101089.25;4983172;28;20204;-80
2021/12/22 04:35:19;;;;;;;0.40;0.40;;;;;;;-5.52;100.00;101102.13;4966437;28;20211;-81
2021/12/22 04:37:47;;;;;;;0.20;0.20;;;-5.20;99.90;;;-5.56;100.00;101100.06;4991498;28;20234;-80
2021/12/22 04:40:15;;;;;;;0.30;0.30;;;-5.10;99.90;;;-5.57;100.00;101108.59;4996865;28;20207;-80
2021/12/22 04:42:44;;;;;;;0.30;0.30;;;-5.30;99.90;;;-5.62;100.00;101099.56;5005948;28;20216;-79
2021/12/22 04:45:14;;;;;;;0.40;0.40;;;-5.20;99.90;;;-5.59;100.00;101098.91;5011166;28;20211;-79
2021/12/22 04:47:44;;;;;;;0.30;0.30;;;-5.30;99.90;;;-5.62;100.00;101098.66;4968784;28;20235;-81
2021/12/22 04:50:17;;;;;;;0.30;0.30;;;-5.20;99.90;;;-5.64;100.00;101103.69;4993832;28;20659;-81
2021/12/22 04:53:07;;;;;;;0.20;0.20;;;-5.20;99.90;;;-5.61;100.00;101105.63;4982936;28;20208;-81
2021/12/22 04:55:36;;;;;;;0.20;0.20;;;;;;;-5.68;100.00;101087.84;4982820;28;20622;-81
2021/12/22 04:58:05;;;;;;;0.20;0.20;;;-5.30;99.90;;;-5.71;100.00;101087.59;4984783;28;20235;-81
2021/12/22 05:00:36;;;;;;;0.30;0.30;;;-5.40;99.90;;;-5.59;100.00;101106.66;4967208;28;20204;-81
2021/12/22 05:03:05;;;;;;;0.20;0.20;;;-5.10;99.90;;;-5.65;100.00;101099.31;4984895;28;20234;-82
2021/12/22 05:05:33;;;;;;;0.30;0.30;;;-5.30;99.90;;;-5.64;100.00;101097.63;4981758;28;20207;-81
2021/12/22 05:08:02;;;;;;;0.20;0.20;;;;;;;-5.64;100.00;101101.13;4970145;28;20683;-82
2021/12/22 05:10:30;;;;;;;0.30;0.30;;;;;;;-5.72;100.00;101091.84;4988751;28;20203;-81
2021/12/22 05:12:58;;;;;;;0.40;0.40;;;-5.20;99.90;;;-5.71;100.00;101093.66;4989968;28;20214;-81
2021/12/22 05:15:35;;;;;;;0.30;0.30;;;-5.00;99.90;;;-5.69;100.00;101099.84;4976786;28;20258;-81
2021/12/22 05:18:22;;;;;;;0.30;0.30;;;-5.30;99.90;;;-5.75;100.00;101090.69;5008144;28;20726;-81
2021/12/22 05:20:52;;;;;;;0.30;0.30;;;-5.30;99.90;;;-5.78;100.00;101083.59;5001146;28;20608;-80
2021/12/22 05:23:20;;;;;;;0.28;0.28;;;-5.40;99.90;;;-5.76;100.00;101091.47;5008432;28;20237;-81
2021/12/22 05:25:49;;;;;;;0.40;0.40;;;;;;;-5.75;100.00;101094.16;4982151;28;20215;-80
2021/12/22 05:28:17;;;;;;;0.20;0.20;;;;;;;-5.75;100.00;101101.00;4968841;28;20230;-81
2021/12/22 05:30:47;;;;;;;0.20;0.20;;;-5.50;99.90;;;-5.78;100.00;101095.59;4994918;28;20222;-81
2021/12/22 05:33:15;;;;;;;0.22;0.22;;;-5.30;99.90;;;-5.80;100.00;101091.22;4996803;28;20196;-81
2021/12/22 05:35:43;;;;;;;0.30;0.30;;;-5.60;99.90;;;-5.86;100.00;101095.84;5013528;28;20199;-81
2021/12/22 05:38:12;;;;;;;0.20;0.20;;;-5.50;99.90;;;-5.84;100.00;101095.97;5002942;28;20212;-81
2021/12/22 05:40:40;;;;;;;0.28;0.28;;;-5.70;99.90;;;-5.82;100.00;101105.63;4982238;28;20200;-80
2021/12/22 05:43:08;;;;;;;0.30;0.30;;;-5.50;99.90;;;-5.83;100.00;101105.50;4994153;28;20199;-81
2021/12/22 05:45:36;;;;;;;0.20;0.20;;;-5.60;99.90;;;-5.91;100.00;101098.84;5000550;28;20563;-81
2021/12/22 05:48:05;;;;;;;0.25;0.25;;;-5.60;99.90;;;-5.89;100.00;101111.03;4981104;28;20231;-81
2021/12/22 05:50:33;;;;;;;0.20;0.20;;;-5.40;99.90;;;-5.88;100.00;101118.00;4982264;28;20200;-80
2021/12/22 05:53:02;;;;;;;0.30;0.30;;;-5.50;99.90;;;-5.89;100.00;101105.03;4996944;28;20223;-81
2021/12/22 05:55:30;;;;;;;1.65;1.65;;;-5.50;99.90;;;-5.90;100.00;101111.84;5001051;28;20582;-81
2021/12/22 05:57:58;;;;;;;0.22;0.22;;;-5.40;99.90;;;-5.94;100.00;101109.78;4998311;28;20239;-81
2021/12/22 06:00:26;;;;;;;0.20;0.20;;;-5.60;99.90;;;-5.94;100.00;101103.72;4975800;28;20211;-81
2021/12/22 06:02:55;;;;;;;0.20;0.20;;;;;;;-5.96;100.00;101106.19;5015987;23;20232;-75
2021/12/22 06:05:23;;;;;;;0.40;0.40;;;-5.60;99.90;;;-5.99;100.00;101108.50;4989789;28;20211;-78
2021/12/22 06:07:52;;;;;;;0.30;0.30;;;;;;;-6.02;100.00;101107.34;4994839;28;20204;-79
2021/12/22 06:10:20;;;;;;;0.20;0.20;;;;;;;-6.04;100.00;101107.19;4989707;28;20208;-78
2021/12/22 06:12:48;;;;;;;0.28;0.28;;;-5.70;99.90;;;-6.04;100.00;101116.59;4993522;28;20241;-78
2021/12/22 06:15:16;;;;;;;1.00;1.00;;;;;;;-6.03;100.00;101115.81;4991476;28;20208;-78
2021/12/22 06:17:46;;;;;;;0.20;0.20;;;;;;;-5.98;100.00;101128.31;4974283;28;20659;-79
2021/12/22 06:20:14;;;;;;;0.20;0.20;;;;;;;-6.01;100.00;101130.63;5003916;28;20215;-78
2021/12/22 06:22:42;;;;;;;0.20;0.20;;;;;;;-6.04;100.00;101127.78;4987968;28;20243;-79
2021/12/22 06:25:11;;;;;;;0.20;0.20;;;;;;;-6.04;100.00;101129.47;4987591;28;20208;-78
2021/12/22 06:27:39;;;;;;;0.20;0.20;;;-5.60;99.90;;;-6.06;100.00;101134.50;4972409;28;20219;-77
2021/12/22 06:30:08;;;;;;;0.20;0.20;;;-5.40;99.90;;;-6.05;100.00;101138.88;4978455;28;20208;-77
2021/12/22 06:32:36;;;;;;;0.20;0.20;;;;;;;-6.06;100.00;101136.16;4985436;28;20236;-78
2021/12/22 06:35:06;;;;;;;0.30;0.30;;;-5.40;99.90;;;-6.07;100.00;101139.50;5006078;28;21583;-78
2021/12/22 06:37:34;;;;;;;0.20;0.20;;;-5.70;99.90;;;-6.09;100.00;101147.09;4976209;28;20208;-78
2021/12/22 06:40:06;;;;;;;0.30;0.30;;;-5.80;99.90;;;-6.10;100.00;101153.03;4974271;28;20567;-78
2021/12/22 06:42:34;;;;;;;0.20;0.20;;;;;;;-6.11;100.00;101155.47;4972721;28;20228;-78
2021/12/22 06:45:04;;;;;;;0.30;0.30;;;;;;;-6.05;100.00;101171.44;4988427;28;20213;-78
2021/12/22 06:47:31;;;;;;;0.30;0.30;;;-5.60;99.90;;;-6.15;100.00;101162.94;5001054;28;20215;-78
2021/12/22 06:50:00;;;;;;;0.30;0.30;;;;;;;-6.14;100.00;101164.72;4982737;28;20213;-78
2021/12/22 06:52:27;;;;;;;0.30;0.30;;;-5.60;99.90;;;-6.08;100.00;101171.19;4958696;28;20228;-78
2021/12/22 06:54:56;;;;;;;0.30;0.30;;;;;;;-6.14;100.00;101167.31;4974052;28;20216;-78
2021/12/22 06:57:24;;;;;;;0.30;0.30;;;;;;;-6.11;100.00;101179.53;4973621;28;20209;-78
2021/12/22 06:59:52;;;;;;;0.30;0.30;;;-5.50;99.90;;;-6.01;100.00;101194.09;4989090;28;20212;-77
2021/12/22 07:02:20;;;;;;;0.30;0.30;;;;;;;-6.11;100.00;101179.53;4989456;28;20224;-78
2021/12/22 07:04:48;;;;;;;0.20;0.20;;;;;;;-6.08;100.00;101181.47;4957666;28;20205;-78
2021/12/22 07:07:16;;;;;;;0.38;0.38;;;-5.40;99.90;;;-6.02;100.00;101197.44;4958399;28;20268;-78
2021/12/22 07:09:44;;;;;;;0.30;0.30;;;;;;;-5.90;100.00;101220.00;4961523;28;20566;-77
2021/12/22 07:12:12;;;;;;;0.20;0.20;;;;;;;-6.03;100.00;101203.38;4986568;28;20221;-78
2021/12/22 07:14:40;;;;;;;0.40;0.40;;;-5.50;99.90;;;-6.08;100.00;101197.81;4984334;28;20212;-78
2021/12/22 07:17:09;;;;;;;0.20;0.20;;;-5.40;99.90;;;-5.91;100.00;101233.66;5006579;28;20209;-78
2021/12/22 07:19:38;;;;;;;0.20;0.20;;;;;;;-5.90;100.00;101232.00;4974944;28;20216;-78
2021/12/22 07:22:06;;;;;;;0.20;0.20;;;;;;;-5.87;100.00;101225.41;4973790;28;20204;-78
2021/12/22 07:24:34;;;;;;;0.20;0.20;;;;;;;-6.00;100.00;101216.50;4958040;28;20216;-77
2021/12/22 07:27:03;;;;;;;0.20;0.20;;;-5.60;99.90;;;-6.03;100.00;101216.25;4957743;28;20208;-78
2021/12/22 07:29:31;;;;;;;0.20;0.20;;;-4.90;99.90;;;-5.95;100.00;101218.72;4941482;28;20204;-77
2021/12/22 07:31:59;;;;;;;0.20;0.20;;;-5.40;99.90;;;-6.03;100.00;101213.66;5004765;28;20216;-78
2021/12/22 07:34:27;;;;;;;0.30;0.30;;;-5.20;99.90;;;-6.02;100.00;101211.22;4972666;28;20204;-78
2021/12/22 07:37:19;;;;;;;0.20;0.20;;;-5.40;99.90;;;-5.96;100.00;101228.88;5005770;28;20205;-77
2021/12/22 07:39:47;;;;;;;0.20;0.20;;;;;;;-6.00;100.00;101225.13;4954514;28;20208;-78
2021/12/22 07:42:15;;;;;;;0.20;0.20;;;-5.40;99.90;;;-6.04;100.00;101220.50;4973848;28;20235;-77
2021/12/22 07:44:44;;;;;;;0.20;0.20;;;;;;;-6.01;100.00;101228.50;5004744;28;20216;-78
2021/12/22 07:47:11;;;;;;;0.40;0.40;;;-5.20;99.90;;;-6.00;100.00;101227.72;4979763;28;20220;-78
2021/12/22 07:49:39;;;;;;;0.20;0.20;;;-5.40;99.90;;;-5.92;100.00;101238.69;5012815;28;20238;-78
2021/12/22 07:52:08;;;;;;;0.20;0.20;;;;;;;-5.71;100.00;101268.84;4972233;28;20228;-77
2021/12/22 07:54:36;;;;;;;0.20;0.20;;;-5.30;99.90;;;-5.69;100.00;101274.13;5003337;28;20215;-77
2021/12/22 07:57:04;;;;;;;0.20;0.20;;;-5.30;99.90;;;-5.66;100.00;101277.88;4957740;28;20216;-78
2021/12/22 07:59:32;;;;;;;0.20;0.20;;;;;;;-5.66;100.00;101275.28;4976391;28;20209;-78
2021/12/22 08:02:00;;;;;;;0.30;0.30;;;-5.10;99.90;;;-5.74;100.00;101266.00;4968295;28;20212;-78
2021/12/22 08:04:30;;;;;;;0.20;0.20;;;-5.20;99.90;;;-5.78;100.00;101251.03;5013285;28;20219;-77
2021/12/22 08:06:58;;;;;;;0.20;0.20;;;-5.20;99.90;;;-5.73;100.00;101257.50;4957423;28;20205;-77
2021/12/22 08:09:27;;;;;;;0.20;0.20;;;;;;;-5.60;100.00;101269.75;4961523;28;20208;-78
2021/12/22 08:11:59;;;;;;;0.20;0.20;;;-4.90;99.90;;;-5.65;100.00;101271.94;4967981;28;20209;-78
2021/12/22 08:14:27;;;;;;;0.20;0.20;;;-4.90;99.90;;;-5.42;100.00;101291.06;4956611;28;20578;-77
2021/12/22 08:16:54;;;;;;;0.20;0.20;;;-4.70;99.90;;;-5.37;100.00;101300.97;4944234;28;20206;-77
2021/12/22 08:19:23;;;;;;;0.60;0.60;;;;;;;-5.24;100.00;101309.00;4972188;28;20205;-78
2021/12/22 08:21:51;;;;;;;0.20;0.20;;;;;;;-5.21;100.00;101313.50;4972754;28;20212;-78
2021/12/22 08:24:19;;;;;;;0.20;0.20;;;-4.70;99.90;;;-5.17;100.00;101325.91;4958902;28;20602;-77
2021/12/22 08:26:47;;;;;;;0.20;0.20;;;;;;;-5.14;100.00;101321.03;4940625;28;20686;-78
2021/12/22 08:29:15;;;;;;;0.20;0.20;;;;;;;-5.17;100.00;101323.34;4945310;28;21442;-78
2021/12/22 08:31:43;;;;;;;0.30;0.30;;;;;;;-5.17;100.00;101321.66;4999543;28;20209;-77
2021/12/22 08:34:15;;;;;;;0.20;0.20;;;;;;;-5.04;100.00;101340.75;4966221;28;20240;-78
2021/12/22 08:39:29;;;;;;;0.20;0.20;;;-4.50;99.90;;;-4.96;100.00;101342.31;4986058;28;20208;-78
2021/12/22 08:41:58;;;;;;;0.10;0.10;;;;;;;-4.95;100.00;101339.88;4988583;28;20212;-78
2021/12/22 08:44:27;;;;;;;0.32;0.32;;;-4.30;99.90;;;-4.96;100.00;101343.22;4957869;28;20212;-78
2021/12/22 08:46:56;;;;;;;0.20;0.20;;;-4.10;99.90;;;-4.78;100.00;101356.78;4988859;28;20201;-78
2021/12/22 08:49:24;;;;;;;0.20;0.20;;;-4.30;99.90;;;-4.80;100.00;101350.56;4972693;28;20211;-77
2021/12/22 08:51:54;;;;;;;0.20;0.20;;;;;;;-4.68;100.00;101366.19;4992549;28;20651;-79
2021/12/22 08:54:25;;;;;;;0.30;0.30;;;-4.10;99.90;;;-4.70;100.00;101365.16;4974761;28;20231;-78
2021/12/22 08:56:55;;;;;;;0.20;0.20;;;-4.10;99.90;;;-4.66;100.00;101367.22;4991577;28;20227;-78
2021/12/22 08:59:24;;;;;;;0.20;0.20;;;-4.00;99.90;;;-4.68;100.00;101366.19;5004570;28;20574;-78
2021/12/22 09:01:54;;;;;;;0.20;0.20;;;;;;;-4.56;100.00;101378.44;4957603;28;20201;-78
2021/12/22 09:04:23;;;;;;;0.20;0.20;;;-3.90;99.90;;;-4.57;100.00;101375.72;4975345;28;20208;-78
2021/12/22 09:06:52;;;;;;;0.22;0.22;;;-3.90;99.90;;;-4.48;100.00;101384.25;4966265;28;20196;-77
2021/12/22 09:09:21;;;;;;;0.20;0.20;;;-3.90;99.90;;;-4.33;100.00;101398.44;4968430;28;20216;-78
2021/12/22 09:11:50;;;;;;;0.20;0.20;;;-3.70;99.90;;;-4.38;100.00;101381.66;5019458;28;20209;-78
2021/12/22 09:14:20;;;;;;;0.15;0.15;;;-3.80;99.90;;;-4.17;100.00;101395.44;4991432;28;20244;-77
2021/12/22 09:16:49;;;;;;;0.20;0.20;;;-3.70;99.90;;;-4.20;100.00;101390.00;4964557;28;20207;-78
2021/12/22 09:19:17;;;;;;;0.15;0.15;;;;;;;-4.25;100.00;101378.41;4958168;28;20216;-78
2021/12/22 09:21:46;;;;;;;0.30;0.30;;;;;;;-4.15;100.00;101387.81;4958603;28;20220;-78
2021/12/22 09:24:14;;;;;;;0.20;0.20;;;-3.50;99.90;;;-4.10;100.00;101395.16;4990291;28;20232;-78
2021/12/22 09:26:46;;;;;;;0.20;0.20;;;-3.30;99.90;;;-4.01;100.00;101397.59;4986729;28;20209;-78
2021/12/22 09:29:26;;;;;;;0.20;0.20;;;-3.30;99.90;;;-3.95;100.00;101399.00;4969716;28;20209;-78
2021/12/22 09:31:56;;;;;;;0.30;0.30;;;;;;;-3.77;100.00;101422.00;4953208;28;20204;-78
2021/12/22 09:34:24;;;;;;;0.10;0.10;;;-3.20;99.90;;;-3.81;100.00;101409.59;4974479;28;20217;-78
2021/12/22 09:36:52;;;;;;;0.28;0.28;;;-3.00;99.90;;;-3.67;100.00;101428.03;4970519;28;20212;-78
2021/12/22 09:39:23;;;;;;;0.20;0.20;;;;;;;-3.52;100.00;101433.53;4993083;28;20216;-79
2021/12/22 09:41:51;;;;;;;0.20;0.20;;;-3.00;99.90;;;-3.52;100.00;101419.69;4973891;28;20663;-78
2021/12/22 09:44:19;;;;;;;0.20;0.20;;;;;;;-3.45;100.00;101422.00;4990268;28;20217;-78
2021/12/22 09:46:52;;;;;;;0.20;0.20;;;;;;;-3.49;100.00;101415.69;4967048;28;20219;-78
2021/12/22 09:49:36;;;;;;;0.28;0.28;;;;;;;-3.45;100.00;101417.72;4964133;28;20204;-78
2021/12/22 09:52:23;;;;;;;0.20;0.20;;;;;;;-3.48;100.00;101401.97;4993651;28;20296;-78
2021/12/22 09:54:57;;;;;;;0.20;0.20;;;-2.70;99.90;;;-3.41;100.00;101412.03;4975424;28;20224;-79
2021/12/22 09:57:29;;;;;;;0.20;0.20;;;-2.90;99.90;;;-3.41;100.00;101414.59;4954570;28;20208;-78
2021/12/22 10:00:00;;;;;;;0.10;0.10;;;-2.70;99.90;;;-3.40;100.00;101408.66;4991896;28;20204;-78
2021/12/22 10:02:29;;;;;;;0.15;0.15;;;-2.60;99.90;;;-3.33;100.00;101405.78;4980922;28;20229;-78
2021/12/22 10:05:00;;;;;;;0.20;0.20;;;-2.60;99.90;;;-3.25;100.00;101411.56;5005040;28;20204;-78
2021/12/22 10:07:30;;;;;;;0.20;0.20;;;-2.50;99.90;;;-3.20;100.00;101407.66;4961011;28;20209;-78
2021/12/22 10:10:09;;;;;;;0.20;0.20;;;-2.40;99.90;;;-3.05;100.00;101407.94;4943407;28;20278;-78
2021/12/22 10:12:39;;;;;;;0.20;0.20;;;;;;;-3.04;100.00;101414.94;4982904;28;20248;-78
2021/12/22 10:15:10;;;;;;;0.20;0.20;;;-2.30;99.90;;;-2.91;100.00;101415.09;4961747;28;20221;-78
2021/12/22 10:17:39;;;;;;;0.20;0.20;;;;;;;-2.90;100.00;101407.47;4974154;28;20201;-78
2021/12/22 10:20:16;;;;;;;0.15;0.15;;;-2.20;99.90;;;-2.79;100.00;101410.88;4973442;28;20212;-78
2021/12/22 10:22:49;;;;;;;0.20;0.20;;;-2.10;99.90;;;-2.73;100.00;101407.88;4960498;28;20224;-78
2021/12/22 10:25:22;;;;;;;0.17;0.17;;;-2.00;99.90;;;-2.73;100.00;101395.81;5004929;28;20197;-78
2021/12/22 10:28:06;;;;;;;0.20;0.20;;;-1.90;99.90;;;-2.74;100.00;101390.53;4971323;28;20209;-78
2021/12/22 10:30:42;;;;;;;0.10;0.10;;;-1.90;99.90;;;-2.62;100.00;101397.53;4974092;28;20224;-75
2021/12/22 10:33:18;;;;;;;0.10;0.10;;;-1.90;99.90;;;-2.58;100.00;101389.25;4955431;28;20228;-76
2021/12/22 10:35:55;;;;;;;0.15;0.15;;;-1.90;99.90;;;-2.50;100.00;101384.66;5005039;28;20200;-76
2021/12/22 10:38:31;;;;;;;0.20;0.20;;;-1.80;99.90;;;-2.43;100.00;101375.66;4962438;28;20212;-76
2021/12/22 10:41:11;;;;;;;0.10;0.10;;;-1.70;99.90;;;-2.37;100.00;101361.50;4972311;28;20204;-76
2021/12/22 10:43:49;;;;;;;0.30;0.30;;;-1.70;99.90;;;-2.29;100.00;101370.72;4971017;28;20236;-76
2021/12/22 10:46:31;;;;;;;0.22;0.22;;;-1.70;99.90;;;-2.19;100.00;101367.16;4958461;28;20205;-76
2021/12/22 10:49:21;;;;;;;0.20;0.20;;;-1.60;99.90;;;-2.09;100.00;101363.53;5017248;28;20209;-75
2021/12/22 10:52:01;;;;;;;0.20;0.20;;;-1.60;99.90;;;-2.11;100.00;101341.78;4972670;28;20215;-77
2021/12/22 10:54:39;;;;;;;0.10;0.10;;;-1.40;99.90;;;-1.99;100.00;101356.56;4985569;28;20243;-76
2021/12/22 10:57:13;;;;;;;1.00;1.00;;;-1.30;99.90;;;-1.93;100.00;101345.75;4972349;28;20200;-76
2021/12/22 10:59:50;;;;;;;0.20;0.20;;;-1.20;99.90;;;-1.84;100.00;101343.81;4977530;28;20209;-75